Terminal Aerodrome Forecast
Issued by NWS

Home | Current Version | Previous Version | Text Only | Print | Product List | Glossary On
Versions: 1 2 3 4 5 6 7 8 9 10 11 12 13 14 15 16 17 18 19 20 21 22 23 24
000
FTUS43 KGRR 221431 AAA
TAFLAN
TAF AMD
KLAN 221431Z 2215/2312 06008KT P6SM SCT015 OVC150
      TEMPO 2215/2217 BKN015
     FM230000 07010KT P6SM BKN070
     FM230700 12010G20KT P6SM OVC015
     FM230900 14011G20KT P6SM -RA OVC008
     FM231100 14010G20KT 4SM -RA OVC003=

USA.gov is the U.S. government's official web portal to all federal, state and local government web resources and services.